Sunny Clover — H3SY — position and weather

sailwx.info

Track history (hours):
 
Tides and Currents Weather Stations Pressure Air Temp Water Temp Dewpoint Dewpoint Depression Visibility Wind Speed Wind Dir Waves Ship Positions

Sunny Clover

Last reported at 2018-Apr-15 19:01 UTC. Time now 2018-Apr-19 17:36 UTC.
Position N 23°20' E 117°30'.

Length 137 m; draft 7.7 m.

Type: Ship (hazmat cat C). MMSI: 374431000.

Date/timePositionNaut miles runAvg speedWind from/ knotsBaromVisibWave heightAir tempDewpointWater temp
2018-Apr-15 19:01N 23°20' E 117°30'015.8
2018-Apr-15 18:59N 23°20' E 117°30'715.6
2018-Apr-15 18:30N 23°25' E 117°36'815.5
2018-Apr-15 18:00N 23°31' E 117°42'815.6
2018-Apr-15 17:30N 23°36' E 117°48'815.5
2018-Apr-15 17:00N 23°42' E 117°54'815.3
2018-Apr-15 16:29N 23°47' E 118°00'715.3
2018-Apr-15 16:00N 23°52' E 118°07'1315.0
2018-Apr-15 15:08N 23°59' E 118°18'215.1
2018-Apr-15 14:59N 24°01' E 118°20'914.7
2018-Apr-15 14:24N 24°07' E 118°27'614.7
2018-Apr-15 13:58N 24°12' E 118°32'714.3
2018-Apr-15 13:30N 24°16' E 118°37'714.1
2018-Apr-15 13:00N 24°22' E 118°42'  
2018-Apr-13 05:40N 35°05' E 129°07'1 8.9
2018-Apr-13 05:31N 35°06' E 129°05'2 4.4
2018-Apr-13 05:00N 35°07' E 129°04'0 0.0
2018-Apr-13 04:30N 35°07' E 129°04'0 0.0
2018-Apr-13 04:00N 35°07' E 129°04'0 0.0
2018-Apr-13 03:27N 35°07' E 129°04'0 0.0
2018-Apr-13 03:00N 35°07' E 129°04'0 0.0
2018-Apr-13 02:30N 35°07' E 129°04'0 0.0
2018-Apr-13 02:00N 35°07' E 129°04'0 0.0
2018-Apr-13 01:30N 35°07' E 129°04'0 0.0
2018-Apr-13 01:00N 35°07' E 129°04'0 0.0
2018-Apr-13 00:30N 35°07' E 129°04'0 0.0
2018-Apr-13 00:00N 35°07' E 129°04'0 0.0
2018-Apr-12 23:30N 35°07' E 129°04'0 0.0
2018-Apr-12 23:00N 35°07' E 129°04'0 0.0
2018-Apr-12 22:30N 35°07' E 129°04'0 0.0
2018-Apr-12 22:00N 35°07' E 129°04'0 0.0
2018-Apr-12 21:30N 35°07' E 129°04'0 0.0
2018-Apr-12 21:00N 35°07' E 129°04'0 0.0
2018-Apr-12 20:30N 35°07' E 129°04'0 0.0
2018-Apr-12 20:00N 35°07' E 129°04'0 0.0
2018-Apr-12 19:30N 35°07' E 129°04'0 0.0
2018-Apr-12 18:57N 35°07' E 129°04'0 0.0
2018-Apr-12 18:30N 35°07' E 129°04'0 0.0
2018-Apr-12 18:00N 35°07' E 129°04'0 0.0
2018-Apr-12 17:30N 35°07' E 129°04'0 0.0
2018-Apr-12 17:00N 35°07' E 129°04'0 0.0
2018-Apr-12 16:30N 35°07' E 129°04'3 5.2
2018-Apr-12 16:00N 35°05' E 129°06'4 8.2
2018-Apr-12 15:30N 35°02' E 129°08'  
2018-Apr-08 07:35N 24°30' E 118°50'215.2
2018-Apr-08 07:27N 24°29' E 118°48'715.3
2018-Apr-08 07:00N 24°24' E 118°42'815.5
2018-Apr-08 06:30N 24°19' E 118°36'815.6
2018-Apr-08 06:00N 24°13' E 118°30'815.8
2018-Apr-08 05:30N 24°08' E 118°24'815.9
2018-Apr-08 05:00N 24°02' E 118°18'816.0
2018-Apr-08 04:29N 23°56' E 118°11'715.7
2018-Apr-08 04:00N 23°51' E 118°05'815.7
2018-Apr-08 03:30N 23°46' E 117°58'815.4
2018-Apr-08 03:00N 23°41' E 117°52'815.5
2018-Apr-08 02:30N 23°35' E 117°47'815.6
2018-Apr-08 02:00N 23°29' E 117°41'815.2
2018-Apr-08 01:30N 23°25' E 117°35'815.2
2018-Apr-08 01:00N 23°19' E 117°29'815.0
2018-Apr-08 00:30N 23°14' E 117°23'714.9
2018-Apr-08 00:00N 23°10' E 117°17'  
Track history (hours):
 
Tides and Currents Weather Stations Pressure Air Temp Water Temp Dewpoint Dewpoint Depression Visibility Wind Speed Wind Dir Waves Ship Positions

Sunny Clover

Last reported at 2018-Apr-15 19:01 UTC. Time now 2018-Apr-19 17:36 UTC.
Position N 23°20' E 117°30'.

Length 137 m; draft 7.7 m.

Type: Ship (hazmat cat C). MMSI: 374431000.

Date/timePositionNaut miles runAvg speedWind from/ knotsBaromVisibWave heightAir tempDewpointWater temp
2018-Apr-15 19:01N 23°20' E 117°30'015.8
2018-Apr-15 18:59N 23°20' E 117°30'715.6
2018-Apr-15 18:30N 23°25' E 117°36'815.5
2018-Apr-15 18:00N 23°31' E 117°42'815.6
2018-Apr-15 17:30N 23°36' E 117°48'815.5
2018-Apr-15 17:00N 23°42' E 117°54'815.3
2018-Apr-15 16:29N 23°47' E 118°00'715.3
2018-Apr-15 16:00N 23°52' E 118°07'1315.0
2018-Apr-15 15:08N 23°59' E 118°18'215.1
2018-Apr-15 14:59N 24°01' E 118°20'914.7
2018-Apr-15 14:24N 24°07' E 118°27'614.7
2018-Apr-15 13:58N 24°12' E 118°32'714.3
2018-Apr-15 13:30N 24°16' E 118°37'714.1
2018-Apr-15 13:00N 24°22' E 118°42'  
2018-Apr-13 05:40N 35°05' E 129°07'1 8.9
2018-Apr-13 05:31N 35°06' E 129°05'2 4.4
2018-Apr-13 05:00N 35°07' E 129°04'0 0.0
2018-Apr-13 04:30N 35°07' E 129°04'0 0.0
2018-Apr-13 04:00N 35°07' E 129°04'0 0.0
2018-Apr-13 03:27N 35°07' E 129°04'0 0.0
2018-Apr-13 03:00N 35°07' E 129°04'0 0.0
2018-Apr-13 02:30N 35°07' E 129°04'0 0.0
2018-Apr-13 02:00N 35°07' E 129°04'0 0.0
2018-Apr-13 01:30N 35°07' E 129°04'0 0.0
2018-Apr-13 01:00N 35°07' E 129°04'0 0.0
2018-Apr-13 00:30N 35°07' E 129°04'0 0.0
2018-Apr-13 00:00N 35°07' E 129°04'0 0.0
2018-Apr-12 23:30N 35°07' E 129°04'0 0.0
2018-Apr-12 23:00N 35°07' E 129°04'0 0.0
2018-Apr-12 22:30N 35°07' E 129°04'0 0.0
2018-Apr-12 22:00N 35°07' E 129°04'0 0.0
2018-Apr-12 21:30N 35°07' E 129°04'0 0.0
2018-Apr-12 21:00N 35°07' E 129°04'0 0.0
2018-Apr-12 20:30N 35°07' E 129°04'0 0.0
2018-Apr-12 20:00N 35°07' E 129°04'0 0.0
2018-Apr-12 19:30N 35°07' E 129°04'0 0.0
2018-Apr-12 18:57N 35°07' E 129°04'0 0.0
2018-Apr-12 18:30N 35°07' E 129°04'0 0.0
2018-Apr-12 18:00N 35°07' E 129°04'0 0.0
2018-Apr-12 17:30N 35°07' E 129°04'0 0.0
2018-Apr-12 17:00N 35°07' E 129°04'0 0.0
2018-Apr-12 16:30N 35°07' E 129°04'3 5.2
2018-Apr-12 16:00N 35°05' E 129°06'4 8.2
2018-Apr-12 15:30N 35°02' E 129°08'  
2018-Apr-08 07:35N 24°30' E 118°50'215.2
2018-Apr-08 07:27N 24°29' E 118°48'715.3
2018-Apr-08 07:00N 24°24' E 118°42'815.5
2018-Apr-08 06:30N 24°19' E 118°36'815.6
2018-Apr-08 06:00N 24°13' E 118°30'815.8
2018-Apr-08 05:30N 24°08' E 118°24'815.9
2018-Apr-08 05:00N 24°02' E 118°18'816.0
2018-Apr-08 04:29N 23°56' E 118°11'715.7
2018-Apr-08 04:00N 23°51' E 118°05'815.7
2018-Apr-08 03:30N 23°46' E 117°58'815.4
2018-Apr-08 03:00N 23°41' E 117°52'815.5
2018-Apr-08 02:30N 23°35' E 117°47'815.6
2018-Apr-08 02:00N 23°29' E 117°41'815.2
2018-Apr-08 01:30N 23°25' E 117°35'815.2
2018-Apr-08 01:00N 23°19' E 117°29'815.0
2018-Apr-08 00:30N 23°14' E 117°23'714.9
2018-Apr-08 00:00N 23°10' E 117°17'  

Dump ship's entire track history